Taisho Maru — JI3307 — position and weather

sailwx.info

Track history (hours):
 
Tides and Currents Weather Stations Pressure Air Temp Water Temp Dewpoint Dewpoint Depression Visibility Wind Speed Wind Dir Waves Ship Positions

Taisho Maru

Last reported at 2015-Jul-03 23:33 UTC. Time now 2015-Jul-03 23:43 UTC.
Position N 35°29' E 139°40'.

Length 93 m; draft 4.8 m.

Type: Cargo ship. MMSI: 431300084.

Date/timePositionNaut miles runAvg speedWind from/ knotsBaromVisibWave heightAir tempDewpointWater temp
2015-Jul-03 23:33N 35°29' E 139°40'0 0.0
2015-Jul-03 22:31N 35°29' E 139°40'0 0.0
2015-Jul-03 21:31N 35°29' E 139°40'0 0.0
2015-Jul-03 20:31N 35°29' E 139°40'0 0.0
2015-Jul-03 19:31N 35°29' E 139°40'0 0.0
2015-Jul-03 18:31N 35°29' E 139°40'0 0.0
2015-Jul-03 17:31N 35°29' E 139°40'0 0.0
2015-Jul-03 16:31N 35°29' E 139°40'0 0.0
2015-Jul-03 15:31N 35°29' E 139°40'0 0.0
2015-Jul-03 14:31N 35°29' E 139°40'0 0.0
2015-Jul-03 13:31N 35°29' E 139°40'0 0.0
2015-Jul-03 12:31N 35°29' E 139°40'0 0.0
2015-Jul-03 11:31N 35°29' E 139°40'0 0.0
2015-Jul-03 10:31N 35°29' E 139°40'0 0.0
2015-Jul-03 09:31N 35°29' E 139°40'0 0.0
2015-Jul-03 08:31N 35°29' E 139°40'0 0.0
2015-Jul-03 07:31N 35°29' E 139°40'0 0.0
2015-Jul-03 06:33N 35°29' E 139°40'2 1.9
2015-Jul-03 05:33N 35°27' E 139°41'1 1.4
2015-Jul-03 04:33N 35°26' E 139°42'0 0.1
2015-Jul-03 03:32N 35°26' E 139°42'0 0.1
2015-Jul-03 02:32N 35°26' E 139°42'0 0.0
2015-Jul-03 01:32N 35°26' E 139°42'0 0.0
2015-Jul-03 00:33N 35°26' E 139°42'0 0.0
2015-Jul-02 23:33N 35°26' E 139°42'0 0.0
2015-Jul-02 22:33N 35°26' E 139°42'0 0.0
2015-Jul-02 21:33N 35°26' E 139°42'0 0.0
2015-Jul-02 20:33N 35°26' E 139°42'4 3.6
2015-Jul-02 19:33N 35°22' E 139°43'1212.3
2015-Jul-02 18:33N 35°10' E 139°47'2411.9
2015-Jul-02 16:31N 34°53' E 139°26'  
2015-Jun-30 06:27N 33°60' E 134°55'1314.5
2015-Jun-30 05:33N 34°13' E 134°57'1514.8
2015-Jun-30 04:33N 34°26' E 135°06'1414.5
2015-Jun-30 03:33N 34°35' E 135°19'6 5.6
2015-Jun-30 02:30N 34°34' E 135°27'0 0.0
2015-Jun-30 01:29N 34°34' E 135°27'0 0.0
2015-Jun-29 23:31N 34°34' E 135°27'2 1.8
2015-Jun-29 22:33N 34°36' E 135°25'3 2.7
2015-Jun-29 21:33N 34°36' E 135°22'0 0.0
2015-Jun-29 20:33N 34°36' E 135°22'0 0.0
2015-Jun-29 19:27N 34°36' E 135°22'0 0.0
2015-Jun-29 18:33N 34°36' E 135°22'0 0.0
2015-Jun-29 17:33N 34°36' E 135°22'6 5.7
2015-Jun-29 16:33N 34°40' E 135°27'0 0.0
2015-Jun-29 15:33N 34°40' E 135°27'0 0.0
2015-Jun-29 14:29N 34°40' E 135°27'0 0.0
2015-Jun-29 13:29N 34°40' E 135°27'0 0.0
2015-Jun-29 12:29N 34°40' E 135°27'0 0.0
2015-Jun-29 10:23N 34°40' E 135°27'0 0.0
2015-Jun-29 09:33N 34°40' E 135°27'1 1.1
2015-Jun-29 08:33N 34°39' E 135°26'6 6.1
2015-Jun-29 07:33N 34°37' E 135°19'0 0.0
2015-Jun-29 06:23N 34°37' E 135°19'0 0.0
2015-Jun-29 05:29N 34°37' E 135°19'0 0.0
2015-Jun-29 04:29N 34°37' E 135°19'0 0.0
2015-Jun-29 03:29N 34°37' E 135°19'0 0.0
2015-Jun-29 02:29N 34°37' E 135°19'0 0.0
2015-Jun-29 01:30N 34°37' E 135°19'0 0.0
2015-Jun-29 00:29N 34°37' E 135°19'0 0.0
2015-Jun-28 23:29N 34°37' E 135°19'0 0.0
2015-Jun-28 22:29N 34°37' E 135°19'0 0.0
2015-Jun-28 21:05N 34°37' E 135°19'0 0.0
2015-Jun-28 20:29N 34°37' E 135°19'0 0.0
2015-Jun-28 19:29N 34°37' E 135°19'0 0.0
2015-Jun-28 18:24N 34°37' E 135°19'0 0.0
2015-Jun-28 17:29N 34°37' E 135°19'0 0.0
2015-Jun-28 16:29N 34°37' E 135°19'0 0.0
2015-Jun-28 15:29N 34°37' E 135°19'0 0.0
2015-Jun-28 14:30N 34°37' E 135°19'0 0.1
2015-Jun-28 13:29N 34°37' E 135°19'0 0.0
2015-Jun-28 12:30N 34°37' E 135°19'0 0.0
2015-Jun-28 11:29N 34°37' E 135°19'0 0.0
2015-Jun-28 10:29N 34°37' E 135°19'0 0.0
2015-Jun-28 09:29N 34°37' E 135°19'0 0.0
2015-Jun-28 08:29N 34°37' E 135°19'0 0.0
2015-Jun-28 07:23N 34°37' E 135°19'0 0.0
2015-Jun-28 06:29N 34°37' E 135°19'0 0.0
2015-Jun-28 05:33N 34°37' E 135°19'0 0.0
2015-Jun-28 04:33N 34°37' E 135°19'0 0.0
2015-Jun-28 03:33N 34°37' E 135°19'0 0.0
2015-Jun-28 02:33N 34°37' E 135°19'0 0.0
2015-Jun-28 01:33N 34°37' E 135°19'0 0.0
2015-Jun-28 00:33N 34°37' E 135°19'5 5.2
2015-Jun-27 23:33N 34°33' E 135°15'1312.3
2015-Jun-27 22:31N 34°23' E 135°05'9 8.8
2015-Jun-27 21:33N 34°14' E 135°04'3 3.4
2015-Jun-27 20:34N 34°14' E 135°08'0 0.0
2015-Jun-27 19:31N 34°14' E 135°08'0 0.0
2015-Jun-27 18:34N 34°14' E 135°08'0 0.0
2015-Jun-27 17:33N 34°14' E 135°08'0 0.0
2015-Jun-27 16:33N 34°14' E 135°08'0 0.0
2015-Jun-27 15:34N 34°14' E 135°08'0 0.0
2015-Jun-27 14:33N 34°14' E 135°08'0 0.0
2015-Jun-27 13:33N 34°14' E 135°08'0 0.2
2015-Jun-27 12:33N 34°14' E 135°08'9 8.6
2015-Jun-27 11:30N 34°21' E 135°00'1313.9
2015-Jun-27 10:33N 34°30' E 135°11'1413.9
2015-Jun-27 09:33N 34°39' E 135°25'2 2.2
2015-Jun-27 08:33N 34°40' E 135°27'0 0.0
2015-Jun-27 07:33N 34°40' E 135°27'0 0.0
2015-Jun-27 06:32N 34°40' E 135°27'0 0.0
2015-Jun-27 05:33N 34°40' E 135°27'0 0.0
2015-Jun-27 04:33N 34°40' E 135°27'0 0.0
2015-Jun-27 03:33N 34°40' E 135°27'0 0.0
2015-Jun-27 02:33N 34°40' E 135°27'0 0.0
2015-Jun-27 01:33N 34°40' E 135°27'0 0.0
2015-Jun-27 00:32N 34°40' E 135°27'0 0.0
2015-Jun-26 23:32N 34°40' E 135°27'1 1.5
2015-Jun-26 22:33N 34°39' E 135°25'6 5.9
2015-Jun-26 21:33N 34°37' E 135°19'0 0.0
2015-Jun-26 20:12N 34°37' E 135°19'0 0.0
2015-Jun-26 19:06N 34°37' E 135°19'0 0.0
2015-Jun-26 18:18N 34°37' E 135°19'0 0.0
2015-Jun-26 17:18N 34°36' E 135°19'0 0.0
2015-Jun-26 16:33N 34°36' E 135°19'1 1.4
2015-Jun-26 15:33N 34°36' E 135°17'1212.1
2015-Jun-26 14:33N 34°36' E 135°03'12 3.9
2015-Jun-26 11:23N 34°40' E 134°48'6 5.2
2015-Jun-26 10:17N 34°40' E 134°42'  
Track history (hours):
 
Tides and Currents Weather Stations Pressure Air Temp Water Temp Dewpoint Dewpoint Depression Visibility Wind Speed Wind Dir Waves Ship Positions

Taisho Maru

Last reported at 2015-Jul-03 23:33 UTC. Time now 2015-Jul-03 23:43 UTC.
Position N 35°29' E 139°40'.

Length 93 m; draft 4.8 m.

Type: Cargo ship. MMSI: 431300084.

Date/timePositionNaut miles runAvg speedWind from/ knotsBaromVisibWave heightAir tempDewpointWater temp
2015-Jul-03 23:33N 35°29' E 139°40'0 0.0
2015-Jul-03 22:31N 35°29' E 139°40'0 0.0
2015-Jul-03 21:31N 35°29' E 139°40'0 0.0
2015-Jul-03 20:31N 35°29' E 139°40'0 0.0
2015-Jul-03 19:31N 35°29' E 139°40'0 0.0
2015-Jul-03 18:31N 35°29' E 139°40'0 0.0
2015-Jul-03 17:31N 35°29' E 139°40'0 0.0
2015-Jul-03 16:31N 35°29' E 139°40'0 0.0
2015-Jul-03 15:31N 35°29' E 139°40'0 0.0
2015-Jul-03 14:31N 35°29' E 139°40'0 0.0
2015-Jul-03 13:31N 35°29' E 139°40'0 0.0
2015-Jul-03 12:31N 35°29' E 139°40'0 0.0
2015-Jul-03 11:31N 35°29' E 139°40'0 0.0
2015-Jul-03 10:31N 35°29' E 139°40'0 0.0
2015-Jul-03 09:31N 35°29' E 139°40'0 0.0
2015-Jul-03 08:31N 35°29' E 139°40'0 0.0
2015-Jul-03 07:31N 35°29' E 139°40'0 0.0
2015-Jul-03 06:33N 35°29' E 139°40'2 1.9
2015-Jul-03 05:33N 35°27' E 139°41'1 1.4
2015-Jul-03 04:33N 35°26' E 139°42'0 0.1
2015-Jul-03 03:32N 35°26' E 139°42'0 0.1
2015-Jul-03 02:32N 35°26' E 139°42'0 0.0
2015-Jul-03 01:32N 35°26' E 139°42'0 0.0
2015-Jul-03 00:33N 35°26' E 139°42'0 0.0
2015-Jul-02 23:33N 35°26' E 139°42'0 0.0
2015-Jul-02 22:33N 35°26' E 139°42'0 0.0
2015-Jul-02 21:33N 35°26' E 139°42'0 0.0
2015-Jul-02 20:33N 35°26' E 139°42'4 3.6
2015-Jul-02 19:33N 35°22' E 139°43'1212.3
2015-Jul-02 18:33N 35°10' E 139°47'2411.9
2015-Jul-02 16:31N 34°53' E 139°26'  
2015-Jun-30 06:27N 33°60' E 134°55'1314.5
2015-Jun-30 05:33N 34°13' E 134°57'1514.8
2015-Jun-30 04:33N 34°26' E 135°06'1414.5
2015-Jun-30 03:33N 34°35' E 135°19'6 5.6
2015-Jun-30 02:30N 34°34' E 135°27'0 0.0
2015-Jun-30 01:29N 34°34' E 135°27'0 0.0
2015-Jun-29 23:31N 34°34' E 135°27'2 1.8
2015-Jun-29 22:33N 34°36' E 135°25'3 2.7
2015-Jun-29 21:33N 34°36' E 135°22'0 0.0
2015-Jun-29 20:33N 34°36' E 135°22'0 0.0
2015-Jun-29 19:27N 34°36' E 135°22'0 0.0
2015-Jun-29 18:33N 34°36' E 135°22'0 0.0
2015-Jun-29 17:33N 34°36' E 135°22'6 5.7
2015-Jun-29 16:33N 34°40' E 135°27'0 0.0
2015-Jun-29 15:33N 34°40' E 135°27'0 0.0
2015-Jun-29 14:29N 34°40' E 135°27'0 0.0
2015-Jun-29 13:29N 34°40' E 135°27'0 0.0
2015-Jun-29 12:29N 34°40' E 135°27'0 0.0
2015-Jun-29 10:23N 34°40' E 135°27'0 0.0
2015-Jun-29 09:33N 34°40' E 135°27'1 1.1
2015-Jun-29 08:33N 34°39' E 135°26'6 6.1
2015-Jun-29 07:33N 34°37' E 135°19'0 0.0
2015-Jun-29 06:23N 34°37' E 135°19'0 0.0
2015-Jun-29 05:29N 34°37' E 135°19'0 0.0
2015-Jun-29 04:29N 34°37' E 135°19'0 0.0
2015-Jun-29 03:29N 34°37' E 135°19'0 0.0
2015-Jun-29 02:29N 34°37' E 135°19'0 0.0
2015-Jun-29 01:30N 34°37' E 135°19'0 0.0
2015-Jun-29 00:29N 34°37' E 135°19'0 0.0
2015-Jun-28 23:29N 34°37' E 135°19'0 0.0
2015-Jun-28 22:29N 34°37' E 135°19'0 0.0
2015-Jun-28 21:05N 34°37' E 135°19'0 0.0
2015-Jun-28 20:29N 34°37' E 135°19'0 0.0
2015-Jun-28 19:29N 34°37' E 135°19'0 0.0
2015-Jun-28 18:24N 34°37' E 135°19'0 0.0
2015-Jun-28 17:29N 34°37' E 135°19'0 0.0
2015-Jun-28 16:29N 34°37' E 135°19'0 0.0
2015-Jun-28 15:29N 34°37' E 135°19'0 0.0
2015-Jun-28 14:30N 34°37' E 135°19'0 0.1
2015-Jun-28 13:29N 34°37' E 135°19'0 0.0
2015-Jun-28 12:30N 34°37' E 135°19'0 0.0
2015-Jun-28 11:29N 34°37' E 135°19'0 0.0
2015-Jun-28 10:29N 34°37' E 135°19'0 0.0
2015-Jun-28 09:29N 34°37' E 135°19'0 0.0
2015-Jun-28 08:29N 34°37' E 135°19'0 0.0
2015-Jun-28 07:23N 34°37' E 135°19'0 0.0
2015-Jun-28 06:29N 34°37' E 135°19'0 0.0
2015-Jun-28 05:33N 34°37' E 135°19'0 0.0
2015-Jun-28 04:33N 34°37' E 135°19'0 0.0
2015-Jun-28 03:33N 34°37' E 135°19'0 0.0
2015-Jun-28 02:33N 34°37' E 135°19'0 0.0
2015-Jun-28 01:33N 34°37' E 135°19'0 0.0
2015-Jun-28 00:33N 34°37' E 135°19'5 5.2
2015-Jun-27 23:33N 34°33' E 135°15'1312.3
2015-Jun-27 22:31N 34°23' E 135°05'9 8.8
2015-Jun-27 21:33N 34°14' E 135°04'3 3.4
2015-Jun-27 20:34N 34°14' E 135°08'0 0.0
2015-Jun-27 19:31N 34°14' E 135°08'0 0.0
2015-Jun-27 18:34N 34°14' E 135°08'0 0.0
2015-Jun-27 17:33N 34°14' E 135°08'0 0.0
2015-Jun-27 16:33N 34°14' E 135°08'0 0.0
2015-Jun-27 15:34N 34°14' E 135°08'0 0.0
2015-Jun-27 14:33N 34°14' E 135°08'0 0.0
2015-Jun-27 13:33N 34°14' E 135°08'0 0.2
2015-Jun-27 12:33N 34°14' E 135°08'9 8.6
2015-Jun-27 11:30N 34°21' E 135°00'1313.9
2015-Jun-27 10:33N 34°30' E 135°11'1413.9
2015-Jun-27 09:33N 34°39' E 135°25'2 2.2
2015-Jun-27 08:33N 34°40' E 135°27'0 0.0
2015-Jun-27 07:33N 34°40' E 135°27'0 0.0
2015-Jun-27 06:32N 34°40' E 135°27'0 0.0
2015-Jun-27 05:33N 34°40' E 135°27'0 0.0
2015-Jun-27 04:33N 34°40' E 135°27'0 0.0
2015-Jun-27 03:33N 34°40' E 135°27'0 0.0
2015-Jun-27 02:33N 34°40' E 135°27'0 0.0
2015-Jun-27 01:33N 34°40' E 135°27'0 0.0
2015-Jun-27 00:32N 34°40' E 135°27'0 0.0
2015-Jun-26 23:32N 34°40' E 135°27'1 1.5
2015-Jun-26 22:33N 34°39' E 135°25'6 5.9
2015-Jun-26 21:33N 34°37' E 135°19'0 0.0
2015-Jun-26 20:12N 34°37' E 135°19'0 0.0
2015-Jun-26 19:06N 34°37' E 135°19'0 0.0
2015-Jun-26 18:18N 34°37' E 135°19'0 0.0
2015-Jun-26 17:18N 34°36' E 135°19'0 0.0
2015-Jun-26 16:33N 34°36' E 135°19'1 1.4
2015-Jun-26 15:33N 34°36' E 135°17'1212.1
2015-Jun-26 14:33N 34°36' E 135°03'12 3.9
2015-Jun-26 11:23N 34°40' E 134°48'6 5.2
2015-Jun-26 10:17N 34°40' E 134°42'  

Dump ship's entire track history